首页
METAR-TAF:

METAR-TAF

机场 :

士乃国际机场

新山, 马来西亚

纬度: 01-38N, 经度: 103-40E, 海拔: 37米

当前天气观测

该预报发布于27分钟前的00:00 UTC
静风
温度 23°C
湿度 94%
气压 1011 hPa
能见度10公里或以上
少量云层高于2400英尺
多云层高于28000英尺

METAR: WMKJ 190000Z 00000KT 9999 FEW024 BKN280 23/22 Q1011

时间: 08:27 (00:27 UTC)

预报

该预报发布于1小时和27分钟前的23:00 UTC
预报有效从19日的 00点(UTC)到 20日的 00点(UTC)
风速2节,风向多变
能见度10公里或以上
少量云层高于2300英尺
成为
从 19日的 01点(UTC)到 19日的 02点(UTC)
风速9节,风向北转东北
少量云层高于2000英尺
成为
从 19日的 13点(UTC)到 19日的 14点(UTC)
风速3节,风向多变
少量云层高于2400英尺

TAF: WMKJ 182300Z 1900/2000 VRB02KT 9999 FEW023 BECMG 1901/1902 03009KT FEW020 BECMG 1913/1914 VRB03KT FEW024

超过4000个机场的气象观测和天气预报(METAR&TAF报告)。

可查询的气象台以黄色和红色小点在地图上表示。

将鼠标移到小点上方,可查看气象台名称。

然后点击查看天气观测和预报。

如需切换地图:点击带黑十字的绿色按钮放大地图;点击带横线的绿色按钮缩小地图;或者点击绿色箭头查看邻近地区的地图。


METAR-TAF: